»·PEaware :: N54073 KCPR-KAPA

N54073 :: KCPR-KAPA

FLIGHT INFORMATION

Flight Status: Arrived
Operator: Privately registered:
United States
More flights under this callsign
Pilot: Anonymous 27411 (27411)
Aircraft: BEECH AIRCRAFT BARON
(BE58)
More flights by this aircraft type
Origin: KCPR Natrona Co Intl
United States
Destination: KAPA Centennial
United States
More flights between these airports :: More routes between these airports
Route: ALCOS6 ALCOS MBW V85 LAR V575 DVV LOWRE
File this flight plan on PilotEdge
Remarks: flying yesterdays route again that was interrupted. thank you!
Altitude:
(Current/Filed)
15,000ft
Speed:
(Current/Filed)
175kts
Departed: 18-Dec-21 08:00 PM
Arrived: 18-Dec-21 09:21 PM
Distance/Time
Traveled:
213nm/1:21
Distance/Time
To Go:
Arrived

Flight Plot

Page will automatically refresh every two minutes.

Flight plan parsing failed; only flown route is shown


Map Options




Map Legend


Flown Route
Filed Route
Departure Airport
Arrival Airport
Navaid (VOR, NDB)
Fix

Horizontal Profiles

Position Reports

Time Latitude Longitude Heading Altitude Ground
Speed
18-Dec-21 19:40 42.902758 -106.459393 313 5351ft 0kts
18-Dec-21 19:42 42.902758 -106.459393 313 5351ft 0kts
18-Dec-21 19:43 42.902758 -106.459393 313 5351ft 0kts
18-Dec-21 19:44 42.902758 -106.459393 313 5351ft 0kts
18-Dec-21 19:45 42.902758 -106.459393 313 5351ft 0kts
18-Dec-21 19:46 42.902758 -106.459393 313 5351ft 0kts
18-Dec-21 19:47 42.902758 -106.459393 313 5351ft 0kts
18-Dec-21 19:48 42.902758 -106.459393 313 5351ft 0kts
18-Dec-21 19:49 42.902758 -106.459393 313 5351ft 0kts
18-Dec-21 19:50 42.902758 -106.459394 313 5351ft 0kts
18-Dec-21 19:51 42.903594 -106.458915 52 5351ft 8kts
18-Dec-21 19:52 42.906652 -106.454622 112 5351ft 12kts
18-Dec-21 19:53 42.907269 -106.451892 43 5351ft 16kts
18-Dec-21 19:54 42.907920 -106.451034 44 5351ft 0kts
18-Dec-21 19:55 42.907919 -106.451035 44 5351ft 0kts
18-Dec-21 19:56 42.907919 -106.451035 44 5351ft 0kts
18-Dec-21 19:57 42.907919 -106.451034 44 5351ft 0kts
18-Dec-21 19:58 42.907919 -106.451035 44 5351ft 0kts
18-Dec-21 19:59 42.908906 -106.451146 270 5351ft 7kts
18-Dec-21 20:00 42.906433 -106.485149 281 5350ft 104kts
18-Dec-21 20:01 42.902762 -106.459400 313 5351ft 0kts
18-Dec-21 20:06 42.879914 -106.499612 211 6972ft 114kts
18-Dec-21 20:07 42.847623 -106.515928 191 7901ft 126kts
18-Dec-21 20:08 42.811177 -106.514156 180 8714ft 135kts
18-Dec-21 20:08 42.782063 -106.528896 213 9347ft 140kts
18-Dec-21 20:09 42.745168 -106.526348 168 10155ft 133kts
18-Dec-21 20:10 42.708884 -106.523989 166 10961ft 129kts
18-Dec-21 20:12 42.670012 -106.505343 159 11911ft 124kts
18-Dec-21 20:12 42.642371 -106.489029 153 12346ft 137kts
18-Dec-21 20:13 42.610469 -106.461984 150 12978ft 136kts
18-Dec-21 20:14 42.575301 -106.442575 161 13518ft 138kts
18-Dec-21 20:15 42.540498 -106.420654 155 14034ft 138kts
18-Dec-21 20:16 42.505312 -106.399625 148 14476ft 142kts
18-Dec-21 20:17 42.469099 -106.379243 159 14882ft 144kts
18-Dec-21 20:18 42.429650 -106.355613 157 14798ft 166kts
18-Dec-21 20:19 42.387645 -106.329156 159 14855ft 164kts
18-Dec-21 20:20 42.344054 -106.306906 163 14736ft 171kts
18-Dec-21 20:21 42.301027 -106.283705 150 14900ft 161kts
18-Dec-21 20:22 42.261536 -106.252152 158 14790ft 183kts
18-Dec-21 20:23 42.216368 -106.227111 161 14904ft 175kts
18-Dec-21 20:24 42.171369 -106.201403 156 14910ft 176kts
18-Dec-21 20:25 42.127854 -106.171198 153 14895ft 178kts
18-Dec-21 20:26 42.084486 -106.138330 151 14894ft 175kts
18-Dec-21 20:27 42.038560 -106.115475 166 14836ft 178kts
18-Dec-21 20:28 41.993703 -106.092022 151 14986ft 173kts
18-Dec-21 20:29 41.951026 -106.059967 151 14991ft 173kts
18-Dec-21 20:30 41.905862 -106.035850 158 14987ft 176kts
18-Dec-21 20:31 41.858153 -106.019157 158 14873ft 182kts
18-Dec-21 20:32 41.813705 -105.991641 161 15106ft 167kts
18-Dec-21 20:33 41.767611 -105.968291 150 14933ft 179kts
18-Dec-21 20:34 41.723857 -105.938990 169 14946ft 178kts
18-Dec-21 20:35 41.675688 -105.920565 159 14796ft 183kts
18-Dec-21 20:36 41.627225 -105.891402 158 14941ft 187kts
18-Dec-21 20:37 41.580627 -105.858343 162 15058ft 197kts
18-Dec-21 20:38 41.530652 -105.824781 161 15075ft 201kts
18-Dec-21 20:39 41.479716 -105.790628 156 15117ft 200kts
18-Dec-21 20:40 41.428390 -105.758418 172 15083ft 195kts
18-Dec-21 20:41 41.376783 -105.730182 158 14987ft 210kts
18-Dec-21 20:42 41.324652 -105.701194 165 15079ft 202kts
18-Dec-21 20:43 41.273019 -105.667696 157 15011ft 208kts
18-Dec-21 20:44 41.222782 -105.636521 176 15021ft 198kts
18-Dec-21 20:45 41.171461 -105.607105 159 15032ft 209kts
18-Dec-21 20:46 41.119686 -105.575017 166 15046ft 204kts
18-Dec-21 20:47 41.067596 -105.549434 168 15095ft 197kts
18-Dec-21 20:48 41.016824 -105.523801 166 15060ft 191kts
18-Dec-21 20:49 40.967412 -105.502902 164 15012ft 188kts
18-Dec-21 20:50 40.918333 -105.481868 162 15011ft 182kts
18-Dec-21 20:51 40.872174 -105.455954 159 15004ft 176kts
18-Dec-21 20:52 40.827080 -105.429963 157 15028ft 172kts
18-Dec-21 20:53 40.783318 -105.404010 162 15020ft 175kts
18-Dec-21 20:54 40.738587 -105.379148 159 15035ft 175kts
18-Dec-21 20:55 40.693991 -105.353156 155 15038ft 176kts
18-Dec-21 20:56 40.650964 -105.323408 155 15049ft 175kts
18-Dec-21 20:57 40.605624 -105.302910 163 15062ft 175kts
18-Dec-21 20:58 40.561631 -105.276573 158 15095ft 174kts
18-Dec-21 20:59 40.516812 -105.251807 159 15076ft 174kts
18-Dec-21 21:00 40.475559 -105.217944 139 15021ft 180kts
18-Dec-21 21:01 40.438605 -105.174186 145 15040ft 176kts
18-Dec-21 21:02 40.400319 -105.133999 140 15012ft 179kts
18-Dec-21 21:03 40.360611 -105.095557 145 15039ft 177kts
18-Dec-21 21:04 40.321076 -105.057413 142 15012ft 179kts
18-Dec-21 21:05 40.280073 -105.022032 162 13671ft 180kts
18-Dec-21 21:06 40.233665 -105.001324 172 12493ft 167kts
18-Dec-21 21:07 40.183652 -104.990404 173 11411ft 202kts
18-Dec-21 21:08 40.130251 -104.976005 171 10722ft 195kts
18-Dec-21 21:09 40.078088 -104.960113 167 10121ft 192kts
18-Dec-21 21:10 40.024440 -104.944972 173 9136ft 203kts
18-Dec-21 21:11 39.969837 -104.931061 169 8139ft 197kts
18-Dec-21 21:12 39.917863 -104.918631 173 8067ft 185kts
18-Dec-21 21:13 39.868329 -104.905314 170 7965ft 183kts
18-Dec-21 21:14 39.818722 -104.892055 170 7826ft 180kts
18-Dec-21 21:15 39.770525 -104.877813 164 7823ft 179kts
18-Dec-21 21:16 39.723077 -104.860156 171 7812ft 176kts
18-Dec-21 21:17 39.674275 -104.857228 178 7515ft 183kts
18-Dec-21 21:18 39.632427 -104.854273 177 6730ft 129kts
18-Dec-21 21:19 39.598278 -104.852430 175 6124ft 123kts
18-Dec-21 21:20 39.574319 -104.850797 117 5888ft 14kts
18-Dec-21 21:21 39.573903 -104.849582 184 5888ft 1kts
18-Dec-21 21:22 39.570317 -104.849443 177 5888ft 13kts
18-Dec-21 21:23 39.570143 -104.848596 51 5888ft 16kts
18-Dec-21 21:24 39.570794 -104.846880 61 5888ft 0kts

Navigation Log

Ident Type
Flight plan parsing failed, navigation log unavailable